sensor_id;sensor_type;location;lat;lon;timestamp;P1;durP1;ratioP1;P2;durP2;ratioP2
28926;SDS011;16038;47.692;9.400;2023-07-02T00:01:07;6.75;;;2.33;;
28926;SDS011;16038;47.692;9.400;2023-07-02T00:03:32;3.38;;;2.15;;
28926;SDS011;16038;47.692;9.400;2023-07-02T00:05:58;5.60;;;2.47;;
28926;SDS011;16038;47.692;9.400;2023-07-02T00:08:23;6.05;;;2.58;;
28926;SDS011;16038;47.692;9.400;2023-07-02T00:10:48;5.60;;;2.53;;
28926;SDS011;16038;47.692;9.400;2023-07-02T00:13:14;5.15;;;2.38;;
28926;SDS011;16038;47.692;9.400;2023-07-02T00:15:40;4.90;;;2.55;;
28926;SDS011;16038;47.692;9.400;2023-07-02T00:18:05;5.80;;;2.65;;
28926;SDS011;16038;47.692;9.400;2023-07-02T00:20:31;4.80;;;2.63;;
28926;SDS011;16038;47.692;9.400;2023-07-02T00:23:02;5.00;;;2.60;;
28926;SDS011;16038;47.692;9.400;2023-07-02T00:25:32;3.90;;;2.50;;
28926;SDS011;16038;47.692;9.400;2023-07-02T00:27:58;6.57;;;3.10;;
28926;SDS011;16038;47.692;9.400;2023-07-02T00:30:23;5.22;;;2.80;;
28926;SDS011;16038;47.692;9.400;2023-07-02T00:32:48;4.10;;;2.70;;
28926;SDS011;16038;47.692;9.400;2023-07-02T00:35:14;6.25;;;3.13;;
28926;SDS011;16038;47.692;9.400;2023-07-02T00:37:39;5.45;;;3.00;;
28926;SDS011;16038;47.692;9.400;2023-07-02T00:40:05;4.57;;;2.78;;
28926;SDS011;16038;47.692;9.400;2023-07-02T00:42:31;6.40;;;2.58;;
28926;SDS011;16038;47.692;9.400;2023-07-02T00:44:56;4.60;;;3.03;;
28926;SDS011;16038;47.692;9.400;2023-07-02T00:47:30;5.50;;;3.35;;
28926;SDS011;16038;47.692;9.400;2023-07-02T00:49:58;5.30;;;3.15;;
28926;SDS011;16038;47.692;9.400;2023-07-02T00:52:24;6.90;;;3.08;;
28926;SDS011;16038;47.692;9.400;2023-07-02T00:54:51;3.47;;;2.90;;
28926;SDS011;16038;47.692;9.400;2023-07-02T00:57:16;5.25;;;3.30;;
28926;SDS011;16038;47.692;9.400;2023-07-02T00:59:42;8.15;;;5.63;;
28926;SDS011;16038;47.692;9.400;2023-07-02T01:02:07;3.92;;;2.78;;
28926;SDS011;16038;47.692;9.400;2023-07-02T01:04:33;3.50;;;2.42;;
28926;SDS011;16038;47.692;9.400;2023-07-02T01:06:58;4.32;;;2.60;;
28926;SDS011;16038;47.692;9.400;2023-07-02T01:09:23;2.70;;;2.05;;
28926;SDS011;16038;47.692;9.400;2023-07-02T01:12:25;3.60;;;2.50;;
28926;SDS011;16038;47.692;9.400;2023-07-02T01:14:48;3.30;;;2.40;;
28926;SDS011;16038;47.692;9.400;2023-07-02T01:17:17;4.30;;;2.40;;
28926;SDS011;16038;47.692;9.400;2023-07-02T01:19:53;3.10;;;1.75;;
28926;SDS011;16038;47.692;9.400;2023-07-02T01:22:24;3.10;;;2.20;;
28926;SDS011;16038;47.692;9.400;2023-07-02T01:24:51;4.38;;;2.22;;
28926;SDS011;16038;47.692;9.400;2023-07-02T01:27:17;3.65;;;2.17;;
28926;SDS011;16038;47.692;9.400;2023-07-02T01:29:43;2.97;;;2.30;;
28926;SDS011;16038;47.692;9.400;2023-07-02T01:32:12;3.72;;;2.25;;
28926;SDS011;16038;47.692;9.400;2023-07-02T01:34:40;3.00;;;2.08;;
28926;SDS011;16038;47.692;9.400;2023-07-02T01:37:06;3.28;;;2.10;;
28926;SDS011;16038;47.692;9.400;2023-07-02T01:39:33;3.10;;;2.10;;
28926;SDS011;16038;47.692;9.400;2023-07-02T01:42:09;3.67;;;2.38;;
28926;SDS011;16038;47.692;9.400;2023-07-02T01:44:35;3.95;;;1.85;;
28926;SDS011;16038;47.692;9.400;2023-07-02T01:47:00;2.97;;;2.00;;
28926;SDS011;16038;47.692;9.400;2023-07-02T01:49:26;3.75;;;1.90;;
28926;SDS011;16038;47.692;9.400;2023-07-02T01:51:52;2.35;;;2.05;;
28926;SDS011;16038;47.692;9.400;2023-07-02T01:54:21;3.28;;;2.00;;
28926;SDS011;16038;47.692;9.400;2023-07-02T01:56:48;2.33;;;1.77;;
28926;SDS011;16038;47.692;9.400;2023-07-02T01:59:14;2.92;;;2.22;;
28926;SDS011;16038;47.692;9.400;2023-07-02T02:01:39;2.78;;;2.03;;
28926;SDS011;16038;47.692;9.400;2023-07-02T02:04:08;2.92;;;1.88;;
28926;SDS011;16038;47.692;9.400;2023-07-02T02:06:35;5.93;;;1.70;;
28926;SDS011;16038;47.692;9.400;2023-07-02T02:09:01;2.88;;;1.98;;
28926;SDS011;16038;47.692;9.400;2023-07-02T02:11:29;2.83;;;1.75;;
28926;SDS011;16038;47.692;9.400;2023-07-02T02:13:55;3.58;;;2.00;;
28926;SDS011;16038;47.692;9.400;2023-07-02T02:16:20;4.05;;;2.05;;
28926;SDS011;16038;47.692;9.400;2023-07-02T02:18:46;3.00;;;1.90;;
28926;SDS011;16038;47.692;9.400;2023-07-02T02:21:11;2.88;;;1.90;;
28926;SDS011;16038;47.692;9.400;2023-07-02T02:23:37;2.10;;;1.55;;
28926;SDS011;16038;47.692;9.400;2023-07-02T02:26:02;2.83;;;1.77;;
28926;SDS011;16038;47.692;9.400;2023-07-02T02:28:28;3.63;;;2.22;;
28926;SDS011;16038;47.692;9.400;2023-07-02T02:30:53;2.97;;;1.98;;
28926;SDS011;16038;47.692;9.400;2023-07-02T02:33:18;3.10;;;2.28;;
28926;SDS011;16038;47.692;9.400;2023-07-02T02:35:44;3.15;;;1.55;;
28926;SDS011;16038;47.692;9.400;2023-07-02T02:38:10;3.70;;;2.05;;
28926;SDS011;16038;47.692;9.400;2023-07-02T02:40:36;3.08;;;1.95;;
28926;SDS011;16038;47.692;9.400;2023-07-02T02:43:01;8.45;;;2.35;;
28926;SDS011;16038;47.692;9.400;2023-07-02T02:45:27;8.38;;;2.28;;
28926;SDS011;16038;47.692;9.400;2023-07-02T02:47:52;3.10;;;2.13;;
28926;SDS011;16038;47.692;9.400;2023-07-02T02:50:18;3.33;;;2.38;;
28926;SDS011;16038;47.692;9.400;2023-07-02T02:52:43;3.70;;;2.45;;
28926;SDS011;16038;47.692;9.400;2023-07-02T02:55:09;4.13;;;2.97;;
28926;SDS011;16038;47.692;9.400;2023-07-02T02:57:36;4.00;;;2.70;;
28926;SDS011;16038;47.692;9.400;2023-07-02T03:00:01;5.50;;;2.80;;
28926;SDS011;16038;47.692;9.400;2023-07-02T03:02:27;6.07;;;3.50;;
28926;SDS011;16038;47.692;9.400;2023-07-02T03:04:53;4.40;;;3.10;;
28926;SDS011;16038;47.692;9.400;2023-07-02T03:07:19;4.35;;;2.85;;
28926;SDS011;16038;47.692;9.400;2023-07-02T03:09:44;6.07;;;3.63;;
28926;SDS011;16038;47.692;9.400;2023-07-02T03:12:10;5.25;;;3.30;;
28926;SDS011;16038;47.692;9.400;2023-07-02T03:14:35;5.82;;;3.38;;
28926;SDS011;16038;47.692;9.400;2023-07-02T03:17:00;4.63;;;3.40;;
28926;SDS011;16038;47.692;9.400;2023-07-02T03:19:26;5.15;;;3.45;;
28926;SDS011;16038;47.692;9.400;2023-07-02T03:21:51;5.53;;;3.65;;
28926;SDS011;16038;47.692;9.400;2023-07-02T03:24:17;7.15;;;4.07;;
28926;SDS011;16038;47.692;9.400;2023-07-02T03:26:43;5.13;;;3.65;;
28926;SDS011;16038;47.692;9.400;2023-07-02T03:29:09;6.15;;;4.45;;
28926;SDS011;16038;47.692;9.400;2023-07-02T03:31:34;6.40;;;4.15;;
28926;SDS011;16038;47.692;9.400;2023-07-02T03:34:03;5.85;;;4.13;;
28926;SDS011;16038;47.692;9.400;2023-07-02T03:36:31;8.95;;;4.50;;
28926;SDS011;16038;47.692;9.400;2023-07-02T03:38:57;7.70;;;4.38;;
28926;SDS011;16038;47.692;9.400;2023-07-02T03:41:22;5.28;;;4.35;;
28926;SDS011;16038;47.692;9.400;2023-07-02T03:43:48;6.20;;;4.65;;
28926;SDS011;16038;47.692;9.400;2023-07-02T03:46:13;6.85;;;4.80;;
28926;SDS011;16038;47.692;9.400;2023-07-02T03:48:39;8.25;;;5.22;;
28926;SDS011;16038;47.692;9.400;2023-07-02T03:51:05;7.82;;;4.80;;
28926;SDS011;16038;47.692;9.400;2023-07-02T03:53:30;9.73;;;4.40;;
28926;SDS011;16038;47.692;9.400;2023-07-02T03:55:56;7.28;;;4.85;;
28926;SDS011;16038;47.692;9.400;2023-07-02T03:58:21;6.93;;;5.05;;
28926;SDS011;16038;47.692;9.400;2023-07-02T04:00:46;7.35;;;4.80;;
28926;SDS011;16038;47.692;9.400;2023-07-02T04:03:15;9.48;;;5.43;;
28926;SDS011;16038;47.692;9.400;2023-07-02T04:05:41;8.55;;;5.43;;
28926;SDS011;16038;47.692;9.400;2023-07-02T04:08:07;7.03;;;4.95;;
28926;SDS011;16038;47.692;9.400;2023-07-02T04:10:32;8.82;;;5.40;;
28926;SDS011;16038;47.692;9.400;2023-07-02T04:12:58;7.35;;;4.88;;
28926;SDS011;16038;47.692;9.400;2023-07-02T04:15:24;8.13;;;5.57;;
28926;SDS011;16038;47.692;9.400;2023-07-02T04:17:51;9.23;;;5.60;;
28926;SDS011;16038;47.692;9.400;2023-07-02T04:20:18;7.00;;;5.43;;
28926;SDS011;16038;47.692;9.400;2023-07-02T04:22:44;7.32;;;5.18;;
28926;SDS011;16038;47.692;9.400;2023-07-02T04:25:11;8.15;;;5.82;;
28926;SDS011;16038;47.692;9.400;2023-07-02T04:27:39;8.98;;;5.30;;
28926;SDS011;16038;47.692;9.400;2023-07-02T04:30:06;8.30;;;5.13;;
28926;SDS011;16038;47.692;9.400;2023-07-02T04:32:33;8.02;;;5.43;;
28926;SDS011;16038;47.692;9.400;2023-07-02T04:34:58;9.95;;;5.30;;
28926;SDS011;16038;47.692;9.400;2023-07-02T04:37:24;10.63;;;5.32;;
28926;SDS011;16038;47.692;9.400;2023-07-02T04:39:49;10.40;;;5.60;;
28926;SDS011;16038;47.692;9.400;2023-07-02T04:42:14;12.73;;;5.57;;
28926;SDS011;16038;47.692;9.400;2023-07-02T04:44:41;11.25;;;5.25;;
28926;SDS011;16038;47.692;9.400;2023-07-02T04:47:08;8.95;;;5.57;;
28926;SDS011;16038;47.692;9.400;2023-07-02T04:49:33;9.63;;;5.07;;
28926;SDS011;16038;47.692;9.400;2023-07-02T04:51:59;9.95;;;5.70;;
28926;SDS011;16038;47.692;9.400;2023-07-02T04:54:24;9.23;;;6.10;;
28926;SDS011;16038;47.692;9.400;2023-07-02T04:56:49;10.65;;;5.50;;
28926;SDS011;16038;47.692;9.400;2023-07-02T04:59:15;8.05;;;5.60;;
28926;SDS011;16038;47.692;9.400;2023-07-02T05:01:41;10.38;;;5.47;;
28926;SDS011;16038;47.692;9.400;2023-07-02T05:04:08;10.70;;;6.00;;
28926;SDS011;16038;47.692;9.400;2023-07-02T05:06:34;10.13;;;5.85;;
28926;SDS011;16038;47.692;9.400;2023-07-02T05:09:00;11.27;;;5.88;;
28926;SDS011;16038;47.692;9.400;2023-07-02T05:11:25;14.10;;;7.38;;
28926;SDS011;16038;47.692;9.400;2023-07-02T05:13:50;12.25;;;6.78;;
28926;SDS011;16038;47.692;9.400;2023-07-02T05:16:16;11.77;;;6.93;;
28926;SDS011;16038;47.692;9.400;2023-07-02T05:18:41;11.98;;;7.28;;
28926;SDS011;16038;47.692;9.400;2023-07-02T05:21:07;15.13;;;8.18;;
28926;SDS011;16038;47.692;9.400;2023-07-02T05:23:32;12.50;;;7.07;;
28926;SDS011;16038;47.692;9.400;2023-07-02T05:25:57;18.15;;;8.95;;
28926;SDS011;16038;47.692;9.400;2023-07-02T05:28:24;16.42;;;8.77;;
28926;SDS011;16038;47.692;9.400;2023-07-02T05:30:50;15.50;;;8.55;;
28926;SDS011;16038;47.692;9.400;2023-07-02T05:33:15;15.88;;;8.48;;
28926;SDS011;16038;47.692;9.400;2023-07-02T05:35:40;20.52;;;9.38;;
28926;SDS011;16038;47.692;9.400;2023-07-02T05:38:06;20.20;;;9.25;;
28926;SDS011;16038;47.692;9.400;2023-07-02T05:40:31;17.23;;;8.65;;
28926;SDS011;16038;47.692;9.400;2023-07-02T05:42:57;16.52;;;8.93;;
28926;SDS011;16038;47.692;9.400;2023-07-02T05:45:22;19.60;;;9.77;;
28926;SDS011;16038;47.692;9.400;2023-07-02T05:47:48;20.63;;;9.77;;
28926;SDS011;16038;47.692;9.400;2023-07-02T05:50:14;21.77;;;10.15;;
28926;SDS011;16038;47.692;9.400;2023-07-02T05:52:40;15.93;;;10.25;;
28926;SDS011;16038;47.692;9.400;2023-07-02T05:55:07;18.10;;;10.75;;
28926;SDS011;16038;47.692;9.400;2023-07-02T06:00:01;22.27;;;10.52;;
28926;SDS011;16038;47.692;9.400;2023-07-02T06:02:26;20.35;;;10.75;;
28926;SDS011;16038;47.692;9.400;2023-07-02T06:04:52;17.88;;;10.38;;
28926;SDS011;16038;47.692;9.400;2023-07-02T06:07:17;19.20;;;10.50;;
28926;SDS011;16038;47.692;9.400;2023-07-02T06:09:42;20.42;;;10.15;;
28926;SDS011;16038;47.692;9.400;2023-07-02T06:12:08;16.33;;;9.10;;
28926;SDS011;16038;47.692;9.400;2023-07-02T06:14:33;20.15;;;10.32;;
28926;SDS011;16038;47.692;9.400;2023-07-02T06:16:59;23.48;;;9.40;;
28926;SDS011;16038;47.692;9.400;2023-07-02T06:19:25;19.60;;;9.95;;
28926;SDS011;16038;47.692;9.400;2023-07-02T06:21:51;19.80;;;9.45;;
28926;SDS011;16038;47.692;9.400;2023-07-02T06:24:16;18.65;;;9.27;;
28926;SDS011;16038;47.692;9.400;2023-07-02T06:26:42;24.17;;;11.05;;
28926;SDS011;16038;47.692;9.400;2023-07-02T06:29:07;23.17;;;10.80;;
28926;SDS011;16038;47.692;9.400;2023-07-02T06:31:32;19.83;;;10.48;;
28926;SDS011;16038;47.692;9.400;2023-07-02T06:33:58;18.77;;;10.18;;
28926;SDS011;16038;47.692;9.400;2023-07-02T06:36:23;22.90;;;10.85;;
28926;SDS011;16038;47.692;9.400;2023-07-02T06:38:48;29.25;;;10.85;;
28926;SDS011;16038;47.692;9.400;2023-07-02T06:41:14;22.23;;;11.13;;
28926;SDS011;16038;47.692;9.400;2023-07-02T06:43:41;21.05;;;10.95;;
28926;SDS011;16038;47.692;9.400;2023-07-02T06:46:09;26.13;;;11.20;;
28926;SDS011;16038;47.692;9.400;2023-07-02T06:48:35;23.75;;;10.80;;
28926;SDS011;16038;47.692;9.400;2023-07-02T06:51:00;15.75;;;10.02;;
28926;SDS011;16038;47.692;9.400;2023-07-02T06:53:26;18.17;;;10.40;;
28926;SDS011;16038;47.692;9.400;2023-07-02T06:55:51;23.08;;;10.88;;
28926;SDS011;16038;47.692;9.400;2023-07-02T06:58:16;20.20;;;11.05;;
28926;SDS011;16038;47.692;9.400;2023-07-02T07:00:42;22.90;;;11.20;;
28926;SDS011;16038;47.692;9.400;2023-07-02T07:03:07;23.42;;;11.02;;
28926;SDS011;16038;47.692;9.400;2023-07-02T07:05:33;19.77;;;11.23;;
28926;SDS011;16038;47.692;9.400;2023-07-02T07:07:59;21.00;;;11.52;;
28926;SDS011;16038;47.692;9.400;2023-07-02T07:10:25;23.48;;;11.48;;
28926;SDS011;16038;47.692;9.400;2023-07-02T07:12:51;25.20;;;12.18;;
28926;SDS011;16038;47.692;9.400;2023-07-02T07:15:16;21.00;;;11.60;;
28926;SDS011;16038;47.692;9.400;2023-07-02T07:17:42;24.77;;;12.02;;
28926;SDS011;16038;47.692;9.400;2023-07-02T07:20:07;23.13;;;12.65;;
28926;SDS011;16038;47.692;9.400;2023-07-02T07:22:33;22.20;;;12.27;;
28926;SDS011;16038;47.692;9.400;2023-07-02T07:24:58;21.65;;;12.55;;
28926;SDS011;16038;47.692;9.400;2023-07-02T07:27:24;21.60;;;12.07;;
28926;SDS011;16038;47.692;9.400;2023-07-02T07:29:49;26.38;;;12.65;;
28926;SDS011;16038;47.692;9.400;2023-07-02T07:32:14;20.92;;;12.18;;
28926;SDS011;16038;47.692;9.400;2023-07-02T07:34:41;24.40;;;12.75;;
28926;SDS011;16038;47.692;9.400;2023-07-02T07:37:07;23.67;;;11.82;;
28926;SDS011;16038;47.692;9.400;2023-07-02T07:39:32;22.92;;;11.85;;
28926;SDS011;16038;47.692;9.400;2023-07-02T07:41:57;27.80;;;13.18;;
28926;SDS011;16038;47.692;9.400;2023-07-02T07:44:23;22.73;;;12.27;;
28926;SDS011;16038;47.692;9.400;2023-07-02T07:46:48;23.80;;;12.68;;
28926;SDS011;16038;47.692;9.400;2023-07-02T07:49:14;25.80;;;12.57;;
28926;SDS011;16038;47.692;9.400;2023-07-02T07:51:39;20.50;;;11.98;;
28926;SDS011;16038;47.692;9.400;2023-07-02T07:54:05;20.77;;;11.85;;
28926;SDS011;16038;47.692;9.400;2023-07-02T07:56:30;22.67;;;12.05;;
28926;SDS011;16038;47.692;9.400;2023-07-02T07:58:55;28.00;;;14.10;;
28926;SDS011;16038;47.692;9.400;2023-07-02T08:01:21;27.77;;;14.02;;
28926;SDS011;16038;47.692;9.400;2023-07-02T08:03:46;25.63;;;13.52;;
28926;SDS011;16038;47.692;9.400;2023-07-02T08:06:11;27.33;;;13.93;;
28926;SDS011;16038;47.692;9.400;2023-07-02T08:08:37;29.67;;;14.45;;
28926;SDS011;16038;47.692;9.400;2023-07-02T08:11:02;32.78;;;16.85;;
28926;SDS011;16038;47.692;9.400;2023-07-02T08:13:28;34.38;;;15.95;;
28926;SDS011;16038;47.692;9.400;2023-07-02T08:15:53;33.13;;;16.60;;
28926;SDS011;16038;47.692;9.400;2023-07-02T08:18:19;41.85;;;20.05;;
28926;SDS011;16038;47.692;9.400;2023-07-02T08:20:44;39.38;;;22.40;;
28926;SDS011;16038;47.692;9.400;2023-07-02T08:23:09;35.13;;;18.60;;
28926;SDS011;16038;47.692;9.400;2023-07-02T08:25:35;34.45;;;18.25;;
28926;SDS011;16038;47.692;9.400;2023-07-02T08:28:00;36.60;;;17.80;;
28926;SDS011;16038;47.692;9.400;2023-07-02T08:30:26;34.35;;;16.98;;
28926;SDS011;16038;47.692;9.400;2023-07-02T08:32:51;39.53;;;17.90;;
28926;SDS011;16038;47.692;9.400;2023-07-02T08:35:19;36.53;;;18.80;;
28926;SDS011;16038;47.692;9.400;2023-07-02T08:37:44;36.92;;;18.05;;
28926;SDS011;16038;47.692;9.400;2023-07-02T08:40:19;36.88;;;19.02;;
28926;SDS011;16038;47.692;9.400;2023-07-02T08:42:45;38.47;;;18.35;;
28926;SDS011;16038;47.692;9.400;2023-07-02T08:45:17;37.55;;;19.67;;
28926;SDS011;16038;47.692;9.400;2023-07-02T08:47:43;32.85;;;18.23;;
28926;SDS011;16038;47.692;9.400;2023-07-02T08:50:09;38.30;;;19.65;;
28926;SDS011;16038;47.692;9.400;2023-07-02T08:52:35;37.10;;;19.70;;
28926;SDS011;16038;47.692;9.400;2023-07-02T08:55:00;36.80;;;20.02;;
28926;SDS011;16038;47.692;9.400;2023-07-02T08:57:26;43.17;;;21.02;;
28926;SDS011;16038;47.692;9.400;2023-07-02T08:59:51;43.17;;;21.30;;
28926;SDS011;16038;47.692;9.400;2023-07-02T09:02:16;41.67;;;20.98;;
28926;SDS011;16038;47.692;9.400;2023-07-02T09:04:42;57.95;;;32.22;;
28926;SDS011;16038;47.692;9.400;2023-07-02T09:07:08;44.78;;;23.95;;
28926;SDS011;16038;47.692;9.400;2023-07-02T09:09:48;37.65;;;18.40;;
28926;SDS011;16038;47.692;9.400;2023-07-02T09:12:27;41.00;;;20.58;;
28926;SDS011;16038;47.692;9.400;2023-07-02T09:15:03;33.97;;;19.40;;
28926;SDS011;16038;47.692;9.400;2023-07-02T09:17:40;39.60;;;20.33;;
28926;SDS011;16038;47.692;9.400;2023-07-02T09:20:05;35.15;;;19.55;;
28926;SDS011;16038;47.692;9.400;2023-07-02T09:22:35;39.33;;;21.00;;
28926;SDS011;16038;47.692;9.400;2023-07-02T09:25:01;38.60;;;20.60;;
28926;SDS011;16038;47.692;9.400;2023-07-02T09:27:34;39.40;;;20.30;;
28926;SDS011;16038;47.692;9.400;2023-07-02T09:30:08;42.53;;;21.67;;
28926;SDS011;16038;47.692;9.400;2023-07-02T09:32:35;37.45;;;20.30;;
28926;SDS011;16038;47.692;9.400;2023-07-02T09:35:00;43.00;;;20.85;;
28926;SDS011;16038;47.692;9.400;2023-07-02T09:37:26;41.00;;;20.90;;
28926;SDS011;16038;47.692;9.400;2023-07-02T09:39:52;45.03;;;21.95;;
28926;SDS011;16038;47.692;9.400;2023-07-02T09:42:20;43.08;;;23.08;;
28926;SDS011;16038;47.692;9.400;2023-07-02T09:44:46;42.00;;;21.50;;
28926;SDS011;16038;47.692;9.400;2023-07-02T09:47:12;39.80;;;22.33;;
28926;SDS011;16038;47.692;9.400;2023-07-02T09:49:49;37.95;;;21.52;;
28926;SDS011;16038;47.692;9.400;2023-07-02T09:52:17;39.35;;;21.25;;
28926;SDS011;16038;47.692;9.400;2023-07-02T09:54:44;42.85;;;23.42;;
28926;SDS011;16038;47.692;9.400;2023-07-02T09:57:10;43.83;;;22.75;;
28926;SDS011;16038;47.692;9.400;2023-07-02T09:59:35;41.97;;;22.17;;
28926;SDS011;16038;47.692;9.400;2023-07-02T10:02:01;39.17;;;21.42;;
28926;SDS011;16038;47.692;9.400;2023-07-02T10:04:27;38.33;;;22.25;;
28926;SDS011;16038;47.692;9.400;2023-07-02T10:06:54;39.55;;;22.33;;
28926;SDS011;16038;47.692;9.400;2023-07-02T10:09:20;43.08;;;23.75;;
28926;SDS011;16038;47.692;9.400;2023-07-02T10:11:58;44.30;;;22.98;;
28926;SDS011;16038;47.692;9.400;2023-07-02T10:14:24;41.92;;;21.55;;
28926;SDS011;16038;47.692;9.400;2023-07-02T10:19:15;40.67;;;23.80;;
28926;SDS011;16038;47.692;9.400;2023-07-02T10:21:41;39.08;;;21.40;;
28926;SDS011;16038;47.692;9.400;2023-07-02T10:24:13;40.90;;;22.05;;
28926;SDS011;16038;47.692;9.400;2023-07-02T10:26:55;44.97;;;23.02;;
28926;SDS011;16038;47.692;9.400;2023-07-02T10:29:23;38.35;;;21.60;;
28926;SDS011;16038;47.692;9.400;2023-07-02T10:31:52;44.47;;;22.30;;
28926;SDS011;16038;47.692;9.400;2023-07-02T10:34:31;43.75;;;22.00;;
28926;SDS011;16038;47.692;9.400;2023-07-02T10:36:57;36.70;;;20.92;;
28926;SDS011;16038;47.692;9.400;2023-07-02T10:39:23;35.92;;;18.70;;
28926;SDS011;16038;47.692;9.400;2023-07-02T10:41:49;37.08;;;21.50;;
28926;SDS011;16038;47.692;9.400;2023-07-02T10:44:14;43.80;;;21.15;;
28926;SDS011;16038;47.692;9.400;2023-07-02T10:46:44;38.22;;;19.92;;
28926;SDS011;16038;47.692;9.400;2023-07-02T10:49:13;37.22;;;19.80;;
28926;SDS011;16038;47.692;9.400;2023-07-02T10:54:07;34.25;;;19.48;;
28926;SDS011;16038;47.692;9.400;2023-07-02T10:56:34;35.80;;;19.02;;
28926;SDS011;16038;47.692;9.400;2023-07-02T10:59:00;32.92;;;20.17;;
28926;SDS011;16038;47.692;9.400;2023-07-02T11:01:26;36.75;;;19.73;;
28926;SDS011;16038;47.692;9.400;2023-07-02T11:03:56;38.65;;;20.92;;
28926;SDS011;16038;47.692;9.400;2023-07-02T11:06:31;37.80;;;20.50;;
28926;SDS011;16038;47.692;9.400;2023-07-02T11:08:58;39.72;;;20.60;;
28926;SDS011;16038;47.692;9.400;2023-07-02T11:11:24;37.25;;;19.35;;
28926;SDS011;16038;47.692;9.400;2023-07-02T11:13:51;37.67;;;19.90;;
28926;SDS011;16038;47.692;9.400;2023-07-02T11:16:18;37.17;;;19.52;;
28926;SDS011;16038;47.692;9.400;2023-07-02T11:18:43;33.13;;;18.88;;
28926;SDS011;16038;47.692;9.400;2023-07-02T11:21:11;32.92;;;18.77;;
28926;SDS011;16038;47.692;9.400;2023-07-02T11:23:37;31.65;;;17.55;;
28926;SDS011;16038;47.692;9.400;2023-07-02T11:26:02;29.92;;;17.55;;
28926;SDS011;16038;47.692;9.400;2023-07-02T11:28:29;30.38;;;16.55;;
28926;SDS011;16038;47.692;9.400;2023-07-02T11:30:56;28.70;;;17.08;;
28926;SDS011;16038;47.692;9.400;2023-07-02T11:33:33;30.08;;;18.02;;
28926;SDS011;16038;47.692;9.400;2023-07-02T11:35:59;29.60;;;17.30;;
28926;SDS011;16038;47.692;9.400;2023-07-02T11:38:24;30.90;;;17.95;;
28926;SDS011;16038;47.692;9.400;2023-07-02T11:40:50;26.50;;;16.38;;
28926;SDS011;16038;47.692;9.400;2023-07-02T11:43:15;26.98;;;15.38;;
28926;SDS011;16038;47.692;9.400;2023-07-02T11:45:41;25.00;;;13.65;;
28926;SDS011;16038;47.692;9.400;2023-07-02T11:48:06;21.75;;;13.50;;
28926;SDS011;16038;47.692;9.400;2023-07-02T11:50:32;25.38;;;14.25;;
28926;SDS011;16038;47.692;9.400;2023-07-02T11:52:57;22.50;;;13.85;;
28926;SDS011;16038;47.692;9.400;2023-07-02T11:55:22;22.88;;;13.48;;
28926;SDS011;16038;47.692;9.400;2023-07-02T11:57:48;18.77;;;11.60;;
28926;SDS011;16038;47.692;9.400;2023-07-02T12:00:14;21.13;;;12.07;;
28926;SDS011;16038;47.692;9.400;2023-07-02T12:02:40;20.83;;;13.02;;
28926;SDS011;16038;47.692;9.400;2023-07-02T12:05:06;18.98;;;11.80;;
28926;SDS011;16038;47.692;9.400;2023-07-02T12:07:33;20.35;;;12.15;;
28926;SDS011;16038;47.692;9.400;2023-07-02T12:09:59;22.17;;;12.52;;
28926;SDS011;16038;47.692;9.400;2023-07-02T12:12:24;19.63;;;11.68;;
28926;SDS011;16038;47.692;9.400;2023-07-02T12:14:49;18.48;;;10.88;;
28926;SDS011;16038;47.692;9.400;2023-07-02T12:17:15;21.65;;;11.38;;
28926;SDS011;16038;47.692;9.400;2023-07-02T12:19:40;20.15;;;11.45;;
28926;SDS011;16038;47.692;9.400;2023-07-02T12:22:06;18.38;;;11.27;;
28926;SDS011;16038;47.692;9.400;2023-07-02T12:24:32;20.95;;;11.60;;
28926;SDS011;16038;47.692;9.400;2023-07-02T12:26:57;19.52;;;10.90;;
28926;SDS011;16038;47.692;9.400;2023-07-02T12:29:22;20.75;;;11.20;;
28926;SDS011;16038;47.692;9.400;2023-07-02T12:31:48;16.73;;;10.38;;
28926;SDS011;16038;47.692;9.400;2023-07-02T12:34:13;19.98;;;10.50;;
28926;SDS011;16038;47.692;9.400;2023-07-02T12:36:39;17.15;;;10.20;;
28926;SDS011;16038;47.692;9.400;2023-07-02T12:39:05;17.35;;;9.93;;
28926;SDS011;16038;47.692;9.400;2023-07-02T12:41:31;15.07;;;9.80;;
28926;SDS011;16038;47.692;9.400;2023-07-02T12:43:56;15.07;;;8.57;;
28926;SDS011;16038;47.692;9.400;2023-07-02T12:46:22;18.75;;;10.10;;
28926;SDS011;16038;47.692;9.400;2023-07-02T12:48:47;18.85;;;9.38;;
28926;SDS011;16038;47.692;9.400;2023-07-02T12:51:13;14.68;;;9.38;;
28926;SDS011;16038;47.692;9.400;2023-07-02T12:53:38;15.93;;;9.60;;
28926;SDS011;16038;47.692;9.400;2023-07-02T12:56:04;15.25;;;9.60;;
28926;SDS011;16038;47.692;9.400;2023-07-02T12:58:30;15.55;;;9.43;;
28926;SDS011;16038;47.692;9.400;2023-07-02T13:00:55;16.00;;;9.35;;
28926;SDS011;16038;47.692;9.400;2023-07-02T13:03:21;14.85;;;9.77;;
28926;SDS011;16038;47.692;9.400;2023-07-02T13:05:48;16.10;;;9.45;;
28926;SDS011;16038;47.692;9.400;2023-07-02T13:08:13;17.25;;;9.70;;
28926;SDS011;16038;47.692;9.400;2023-07-02T13:10:39;15.45;;;9.98;;
28926;SDS011;16038;47.692;9.400;2023-07-02T13:13:04;15.77;;;10.27;;
28926;SDS011;16038;47.692;9.400;2023-07-02T13:15:31;16.33;;;9.77;;
28926;SDS011;16038;47.692;9.400;2023-07-02T13:17:56;13.93;;;8.73;;
28926;SDS011;16038;47.692;9.400;2023-07-02T13:20:22;17.23;;;9.93;;
28926;SDS011;16038;47.692;9.400;2023-07-02T13:22:47;14.98;;;9.27;;
28926;SDS011;16038;47.692;9.400;2023-07-02T13:25:12;18.00;;;9.43;;
28926;SDS011;16038;47.692;9.400;2023-07-02T13:27:38;17.58;;;9.73;;
28926;SDS011;16038;47.692;9.400;2023-07-02T13:30:03;15.65;;;9.90;;
28926;SDS011;16038;47.692;9.400;2023-07-02T13:32:30;16.10;;;9.82;;
28926;SDS011;16038;47.692;9.400;2023-07-02T13:34:55;14.15;;;9.55;;
28926;SDS011;16038;47.692;9.400;2023-07-02T13:37:20;14.75;;;8.93;;
28926;SDS011;16038;47.692;9.400;2023-07-02T13:39:46;15.82;;;10.13;;
28926;SDS011;16038;47.692;9.400;2023-07-02T13:42:12;16.98;;;9.60;;
28926;SDS011;16038;47.692;9.400;2023-07-02T13:44:38;17.27;;;9.90;;
28926;SDS011;16038;47.692;9.400;2023-07-02T13:47:04;14.80;;;9.35;;
28926;SDS011;16038;47.692;9.400;2023-07-02T13:49:30;15.77;;;9.32;;
28926;SDS011;16038;47.692;9.400;2023-07-02T13:51:55;15.68;;;10.23;;
28926;SDS011;16038;47.692;9.400;2023-07-02T13:54:21;17.20;;;10.10;;
28926;SDS011;16038;47.692;9.400;2023-07-02T13:56:46;14.10;;;9.77;;
28926;SDS011;16038;47.692;9.400;2023-07-02T13:59:12;16.35;;;10.07;;
28926;SDS011;16038;47.692;9.400;2023-07-02T14:01:38;17.98;;;9.85;;
28926;SDS011;16038;47.692;9.400;2023-07-02T14:04:04;14.88;;;9.38;;
28926;SDS011;16038;47.692;9.400;2023-07-02T14:06:30;18.77;;;9.73;;
28926;SDS011;16038;47.692;9.400;2023-07-02T14:08:55;15.10;;;9.20;;
28926;SDS011;16038;47.692;9.400;2023-07-02T14:11:21;16.42;;;9.48;;
28926;SDS011;16038;47.692;9.400;2023-07-02T14:13:47;14.48;;;10.05;;
28926;SDS011;16038;47.692;9.400;2023-07-02T14:16:13;16.73;;;9.43;;
28926;SDS011;16038;47.692;9.400;2023-07-02T14:18:38;14.55;;;9.40;;
28926;SDS011;16038;47.692;9.400;2023-07-02T14:21:04;14.18;;;9.13;;
28926;SDS011;16038;47.692;9.400;2023-07-02T14:23:29;11.93;;;8.13;;
28926;SDS011;16038;47.692;9.400;2023-07-02T14:25:55;13.77;;;8.63;;
28926;SDS011;16038;47.692;9.400;2023-07-02T14:28:20;14.02;;;8.52;;
28926;SDS011;16038;47.692;9.400;2023-07-02T14:30:45;14.02;;;7.72;;
28926;SDS011;16038;47.692;9.400;2023-07-02T14:33:12;14.00;;;8.23;;
28926;SDS011;16038;47.692;9.400;2023-07-02T14:35:38;12.23;;;8.38;;